sensor_id;sensor_type;location;lat;lon;timestamp;temperature;humidity
36444;DHT22;24692;45.642;13.806;2023-05-10T00:00:54;15.30;99.90
36444;DHT22;24692;45.642;13.806;2023-05-10T00:03:19;15.30;99.90
36444;DHT22;24692;45.642;13.806;2023-05-10T00:05:45;15.30;99.90
36444;DHT22;24692;45.642;13.806;2023-05-10T00:08:11;15.30;99.90
36444;DHT22;24692;45.642;13.806;2023-05-10T00:10:36;15.30;99.90
36444;DHT22;24692;45.642;13.806;2023-05-10T00:13:03;15.30;99.90
36444;DHT22;24692;45.642;13.806;2023-05-10T00:15:28;15.30;99.90
36444;DHT22;24692;45.642;13.806;2023-05-10T00:17:56;15.30;99.90
36444;DHT22;24692;45.642;13.806;2023-05-10T00:20:22;15.30;99.90
36444;DHT22;24692;45.642;13.806;2023-05-10T00:22:47;15.30;99.90
36444;DHT22;24692;45.642;13.806;2023-05-10T00:25:13;15.20;99.90
36444;DHT22;24692;45.642;13.806;2023-05-10T00:27:39;15.30;99.90
36444;DHT22;24692;45.642;13.806;2023-05-10T00:30:05;15.30;99.90
36444;DHT22;24692;45.642;13.806;2023-05-10T00:32:31;15.30;99.90
36444;DHT22;24692;45.642;13.806;2023-05-10T00:34:57;15.20;99.90
36444;DHT22;24692;45.642;13.806;2023-05-10T00:37:23;15.30;99.90
36444;DHT22;24692;45.642;13.806;2023-05-10T00:39:48;15.20;99.90
36444;DHT22;24692;45.642;13.806;2023-05-10T00:42:14;15.20;99.90
36444;DHT22;24692;45.642;13.806;2023-05-10T00:44:40;15.10;99.90
36444;DHT22;24692;45.642;13.806;2023-05-10T00:47:05;15.10;99.90
36444;DHT22;24692;45.642;13.806;2023-05-10T00:49:31;15.20;99.90
36444;DHT22;24692;45.642;13.806;2023-05-10T00:51:57;15.20;99.90
36444;DHT22;24692;45.642;13.806;2023-05-10T00:54:23;15.20;99.90
36444;DHT22;24692;45.642;13.806;2023-05-10T00:56:48;15.20;99.90
36444;DHT22;24692;45.642;13.806;2023-05-10T00:59:15;15.30;99.90
36444;DHT22;24692;45.642;13.806;2023-05-10T01:01:43;15.20;99.90
36444;DHT22;24692;45.642;13.806;2023-05-10T01:04:10;15.20;99.90
36444;DHT22;24692;45.642;13.806;2023-05-10T01:06:36;15.10;99.90
36444;DHT22;24692;45.642;13.806;2023-05-10T01:09:02;15.10;99.90
36444;DHT22;24692;45.642;13.806;2023-05-10T01:11:28;15.20;99.90
36444;DHT22;24692;45.642;13.806;2023-05-10T01:13:56;15.10;99.90
36444;DHT22;24692;45.642;13.806;2023-05-10T01:16:23;15.10;99.90
36444;DHT22;24692;45.642;13.806;2023-05-10T01:18:51;15.20;99.90
36444;DHT22;24692;45.642;13.806;2023-05-10T01:21:37;15.20;99.90
36444;DHT22;24692;45.642;13.806;2023-05-10T01:32:29;15.20;99.90
36444;DHT22;24692;45.642;13.806;2023-05-10T01:37:41;15.30;99.90
36444;DHT22;24692;45.642;13.806;2023-05-10T01:40:15;15.20;99.90
36444;DHT22;24692;45.642;13.806;2023-05-10T01:42:52;15.20;99.90
36444;DHT22;24692;45.642;13.806;2023-05-10T01:45:24;15.30;99.90
36444;DHT22;24692;45.642;13.806;2023-05-10T01:48:05;15.30;99.90
36444;DHT22;24692;45.642;13.806;2023-05-10T01:50:32;15.30;99.90
36444;DHT22;24692;45.642;13.806;2023-05-10T01:53:00;15.30;99.90
36444;DHT22;24692;45.642;13.806;2023-05-10T01:55:30;15.30;99.90
36444;DHT22;24692;45.642;13.806;2023-05-10T01:58:07;15.40;99.90
36444;DHT22;24692;45.642;13.806;2023-05-10T02:00:34;15.40;99.90
36444;DHT22;24692;45.642;13.806;2023-05-10T02:03:05;15.40;99.90
36444;DHT22;24692;45.642;13.806;2023-05-10T02:05:32;15.40;99.90
36444;DHT22;24692;45.642;13.806;2023-05-10T02:07:59;15.30;99.90
36444;DHT22;24692;45.642;13.806;2023-05-10T02:10:27;15.40;99.90
36444;DHT22;24692;45.642;13.806;2023-05-10T02:12:54;15.40;99.90
36444;DHT22;24692;45.642;13.806;2023-05-10T02:15:23;15.50;99.90
36444;DHT22;24692;45.642;13.806;2023-05-10T02:17:51;15.50;99.90
36444;DHT22;24692;45.642;13.806;2023-05-10T02:20:18;15.60;99.90
36444;DHT22;24692;45.642;13.806;2023-05-10T02:22:45;15.60;99.90
36444;DHT22;24692;45.642;13.806;2023-05-10T02:25:13;15.60;99.90
36444;DHT22;24692;45.642;13.806;2023-05-10T02:27:40;15.50;99.90
36444;DHT22;24692;45.642;13.806;2023-05-10T02:30:07;15.50;99.90
36444;DHT22;24692;45.642;13.806;2023-05-10T02:32:34;15.50;99.90
36444;DHT22;24692;45.642;13.806;2023-05-10T02:35:02;15.60;99.90
36444;DHT22;24692;45.642;13.806;2023-05-10T02:37:28;15.50;99.90
36444;DHT22;24692;45.642;13.806;2023-05-10T02:39:55;15.60;99.90
36444;DHT22;24692;45.642;13.806;2023-05-10T02:42:25;15.60;99.90
36444;DHT22;24692;45.642;13.806;2023-05-10T02:44:54;15.60;99.90
36444;DHT22;24692;45.642;13.806;2023-05-10T02:47:22;15.60;99.90
36444;DHT22;24692;45.642;13.806;2023-05-10T02:49:49;15.60;99.90
36444;DHT22;24692;45.642;13.806;2023-05-10T02:52:21;15.60;99.90
36444;DHT22;24692;45.642;13.806;2023-05-10T02:54:50;15.60;99.90
36444;DHT22;24692;45.642;13.806;2023-05-10T02:57:27;15.60;99.90
36444;DHT22;24692;45.642;13.806;2023-05-10T02:59:54;15.60;99.90
36444;DHT22;24692;45.642;13.806;2023-05-10T03:02:20;15.60;99.90
36444;DHT22;24692;45.642;13.806;2023-05-10T03:04:46;15.60;99.90
36444;DHT22;24692;45.642;13.806;2023-05-10T03:07:12;15.60;99.90
36444;DHT22;24692;45.642;13.806;2023-05-10T03:09:38;15.70;99.90
36444;DHT22;24692;45.642;13.806;2023-05-10T03:12:14;15.70;99.90
36444;DHT22;24692;45.642;13.806;2023-05-10T03:20:10;15.60;99.90
36444;DHT22;24692;45.642;13.806;2023-05-10T03:23:01;15.70;99.90
36444;DHT22;24692;45.642;13.806;2023-05-10T03:25:28;15.70;99.90
36444;DHT22;24692;45.642;13.806;2023-05-10T03:27:56;15.70;99.90
36444;DHT22;24692;45.642;13.806;2023-05-10T03:30:22;15.70;99.90
36444;DHT22;24692;45.642;13.806;2023-05-10T03:32:49;15.60;99.90
36444;DHT22;24692;45.642;13.806;2023-05-10T03:35:15;15.60;99.90
36444;DHT22;24692;45.642;13.806;2023-05-10T03:37:41;15.70;99.90
36444;DHT22;24692;45.642;13.806;2023-05-10T03:40:07;15.60;99.90
36444;DHT22;24692;45.642;13.806;2023-05-10T03:42:33;15.70;99.90
36444;DHT22;24692;45.642;13.806;2023-05-10T03:44:58;15.70;99.90
36444;DHT22;24692;45.642;13.806;2023-05-10T03:47:24;15.70;99.90
36444;DHT22;24692;45.642;13.806;2023-05-10T03:49:50;15.70;99.90
36444;DHT22;24692;45.642;13.806;2023-05-10T03:52:16;15.80;99.90
36444;DHT22;24692;45.642;13.806;2023-05-10T03:54:41;15.70;99.90
36444;DHT22;24692;45.642;13.806;2023-05-10T03:57:07;15.70;99.90
36444;DHT22;24692;45.642;13.806;2023-05-10T03:59:33;15.60;99.90
36444;DHT22;24692;45.642;13.806;2023-05-10T04:01:58;15.60;99.90
36444;DHT22;24692;45.642;13.806;2023-05-10T04:04:24;15.50;99.90
36444;DHT22;24692;45.642;13.806;2023-05-10T04:06:49;15.50;99.90
36444;DHT22;24692;45.642;13.806;2023-05-10T04:09:15;15.50;99.90
36444;DHT22;24692;45.642;13.806;2023-05-10T04:11:42;15.50;99.90
36444;DHT22;24692;45.642;13.806;2023-05-10T04:14:08;15.60;99.90
36444;DHT22;24692;45.642;13.806;2023-05-10T04:16:34;15.60;99.90
36444;DHT22;24692;45.642;13.806;2023-05-10T04:18:59;15.60;99.90
36444;DHT22;24692;45.642;13.806;2023-05-10T04:21:25;15.60;99.90
36444;DHT22;24692;45.642;13.806;2023-05-10T04:23:51;15.50;99.90
36444;DHT22;24692;45.642;13.806;2023-05-10T04:26:17;15.50;99.90
36444;DHT22;24692;45.642;13.806;2023-05-10T04:28:43;15.60;99.90
36444;DHT22;24692;45.642;13.806;2023-05-10T04:31:09;15.50;99.90
36444;DHT22;24692;45.642;13.806;2023-05-10T04:33:36;15.50;99.90
36444;DHT22;24692;45.642;13.806;2023-05-10T04:36:02;15.60;99.90
36444;DHT22;24692;45.642;13.806;2023-05-10T04:38:29;15.60;99.90
36444;DHT22;24692;45.642;13.806;2023-05-10T04:41:06;15.60;99.90
36444;DHT22;24692;45.642;13.806;2023-05-10T04:43:32;15.50;99.90
36444;DHT22;24692;45.642;13.806;2023-05-10T04:45:58;15.50;99.90
36444;DHT22;24692;45.642;13.806;2023-05-10T04:48:24;15.50;99.90
36444;DHT22;24692;45.642;13.806;2023-05-10T04:50:50;15.50;99.90
36444;DHT22;24692;45.642;13.806;2023-05-10T04:53:15;15.50;99.90
36444;DHT22;24692;45.642;13.806;2023-05-10T04:55:41;15.50;99.90
36444;DHT22;24692;45.642;13.806;2023-05-10T04:58:07;15.50;99.90
36444;DHT22;24692;45.642;13.806;2023-05-10T05:00:33;15.40;99.90
36444;DHT22;24692;45.642;13.806;2023-05-10T05:02:58;15.30;99.90
36444;DHT22;24692;45.642;13.806;2023-05-10T05:05:24;15.20;99.90
36444;DHT22;24692;45.642;13.806;2023-05-10T05:07:50;15.30;99.90
36444;DHT22;24692;45.642;13.806;2023-05-10T05:10:16;15.20;99.90
36444;DHT22;24692;45.642;13.806;2023-05-10T05:12:41;15.10;99.90
36444;DHT22;24692;45.642;13.806;2023-05-10T05:15:07;15.20;99.90
36444;DHT22;24692;45.642;13.806;2023-05-10T05:17:36;15.20;99.90
36444;DHT22;24692;45.642;13.806;2023-05-10T05:20:02;15.20;99.90
36444;DHT22;24692;45.642;13.806;2023-05-10T05:22:28;15.10;99.90
36444;DHT22;24692;45.642;13.806;2023-05-10T05:24:55;15.20;99.90
36444;DHT22;24692;45.642;13.806;2023-05-10T05:27:20;15.20;99.90
36444;DHT22;24692;45.642;13.806;2023-05-10T05:29:52;15.10;99.90
36444;DHT22;24692;45.642;13.806;2023-05-10T05:32:18;15.10;99.90
36444;DHT22;24692;45.642;13.806;2023-05-10T05:34:45;15.10;99.90
36444;DHT22;24692;45.642;13.806;2023-05-10T05:37:18;15.10;99.90
36444;DHT22;24692;45.642;13.806;2023-05-10T05:39:44;15.10;99.90
36444;DHT22;24692;45.642;13.806;2023-05-10T05:42:10;15.10;99.90
36444;DHT22;24692;45.642;13.806;2023-05-10T05:44:36;15.10;99.90
36444;DHT22;24692;45.642;13.806;2023-05-10T05:47:02;15.40;99.90
36444;DHT22;24692;45.642;13.806;2023-05-10T05:49:28;15.70;99.90
36444;DHT22;24692;45.642;13.806;2023-05-10T05:51:54;15.90;99.90
36444;DHT22;24692;45.642;13.806;2023-05-10T05:54:20;16.00;99.90
36444;DHT22;24692;45.642;13.806;2023-05-10T05:56:45;15.90;99.90
36444;DHT22;24692;45.642;13.806;2023-05-10T05:59:11;16.00;99.90
36444;DHT22;24692;45.642;13.806;2023-05-10T06:01:37;16.00;99.90
36444;DHT22;24692;45.642;13.806;2023-05-10T06:04:04;16.00;99.90
36444;DHT22;24692;45.642;13.806;2023-05-10T06:06:31;16.00;99.90
36444;DHT22;24692;45.642;13.806;2023-05-10T06:08:57;16.20;99.90
36444;DHT22;24692;45.642;13.806;2023-05-10T06:11:24;16.40;99.90
36444;DHT22;24692;45.642;13.806;2023-05-10T06:13:51;16.50;99.90
36444;DHT22;24692;45.642;13.806;2023-05-10T06:16:16;16.50;99.90
36444;DHT22;24692;45.642;13.806;2023-05-10T06:18:43;16.40;99.90
36444;DHT22;24692;45.642;13.806;2023-05-10T06:21:08;16.60;99.90
36444;DHT22;24692;45.642;13.806;2023-05-10T06:23:36;17.00;99.90
36444;DHT22;24692;45.642;13.806;2023-05-10T06:26:01;16.80;99.90
36444;DHT22;24692;45.642;13.806;2023-05-10T06:28:27;16.80;99.90
36444;DHT22;24692;45.642;13.806;2023-05-10T06:30:53;16.70;99.90
36444;DHT22;24692;45.642;13.806;2023-05-10T06:33:18;16.70;99.90
36444;DHT22;24692;45.642;13.806;2023-05-10T06:35:44;16.90;99.90
36444;DHT22;24692;45.642;13.806;2023-05-10T06:38:10;17.00;99.90
36444;DHT22;24692;45.642;13.806;2023-05-10T06:40:36;16.90;99.90
36444;DHT22;24692;45.642;13.806;2023-05-10T06:43:01;16.80;99.90
36444;DHT22;24692;45.642;13.806;2023-05-10T06:45:27;16.70;99.90
36444;DHT22;24692;45.642;13.806;2023-05-10T06:47:52;17.00;99.90
36444;DHT22;24692;45.642;13.806;2023-05-10T06:50:18;16.90;99.90
36444;DHT22;24692;45.642;13.806;2023-05-10T06:52:44;16.70;99.90
36444;DHT22;24692;45.642;13.806;2023-05-10T06:55:10;16.70;99.90
36444;DHT22;24692;45.642;13.806;2023-05-10T06:57:35;16.50;99.90
36444;DHT22;24692;45.642;13.806;2023-05-10T07:00:02;16.50;99.90
36444;DHT22;24692;45.642;13.806;2023-05-10T07:02:29;16.50;99.90
36444;DHT22;24692;45.642;13.806;2023-05-10T07:04:55;16.40;99.90
36444;DHT22;24692;45.642;13.806;2023-05-10T07:07:20;16.50;99.90
36444;DHT22;24692;45.642;13.806;2023-05-10T07:09:46;16.70;99.90
36444;DHT22;24692;45.642;13.806;2023-05-10T07:12:12;16.50;99.90
36444;DHT22;24692;45.642;13.806;2023-05-10T07:14:37;16.60;99.90
36444;DHT22;24692;45.642;13.806;2023-05-10T07:17:03;16.50;99.90
36444;DHT22;24692;45.642;13.806;2023-05-10T07:19:32;16.80;99.90
36444;DHT22;24692;45.642;13.806;2023-05-10T07:21:58;17.10;99.90
36444;DHT22;24692;45.642;13.806;2023-05-10T07:24:23;17.10;99.90
36444;DHT22;24692;45.642;13.806;2023-05-10T07:26:49;17.00;99.90
36444;DHT22;24692;45.642;13.806;2023-05-10T07:29:15;16.80;99.90
36444;DHT22;24692;45.642;13.806;2023-05-10T07:31:41;16.80;99.90
36444;DHT22;24692;45.642;13.806;2023-05-10T07:34:08;16.40;99.90
36444;DHT22;24692;45.642;13.806;2023-05-10T07:36:34;16.40;99.90
36444;DHT22;24692;45.642;13.806;2023-05-10T07:39:00;16.30;99.90
36444;DHT22;24692;45.642;13.806;2023-05-10T07:41:27;16.30;99.90
36444;DHT22;24692;45.642;13.806;2023-05-10T07:43:53;16.30;99.90
36444;DHT22;24692;45.642;13.806;2023-05-10T07:46:19;16.40;99.90
36444;DHT22;24692;45.642;13.806;2023-05-10T07:48:47;16.60;99.90
36444;DHT22;24692;45.642;13.806;2023-05-10T07:51:13;16.80;99.90
36444;DHT22;24692;45.642;13.806;2023-05-10T07:53:39;16.80;99.90
36444;DHT22;24692;45.642;13.806;2023-05-10T07:56:21;16.70;99.90
36444;DHT22;24692;45.642;13.806;2023-05-10T07:58:51;16.70;99.90
36444;DHT22;24692;45.642;13.806;2023-05-10T08:01:17;16.60;99.90
36444;DHT22;24692;45.642;13.806;2023-05-10T08:03:43;16.60;99.90
36444;DHT22;24692;45.642;13.806;2023-05-10T08:06:09;16.50;99.90
36444;DHT22;24692;45.642;13.806;2023-05-10T08:08:34;16.50;99.90
36444;DHT22;24692;45.642;13.806;2023-05-10T08:11:00;16.50;99.90
36444;DHT22;24692;45.642;13.806;2023-05-10T08:13:28;16.70;99.90
36444;DHT22;24692;45.642;13.806;2023-05-10T08:15:54;16.80;99.90
36444;DHT22;24692;45.642;13.806;2023-05-10T08:18:22;16.90;99.90
36444;DHT22;24692;45.642;13.806;2023-05-10T08:20:49;17.00;99.90
36444;DHT22;24692;45.642;13.806;2023-05-10T08:23:14;16.90;99.90
36444;DHT22;24692;45.642;13.806;2023-05-10T08:25:41;16.90;99.90
36444;DHT22;24692;45.642;13.806;2023-05-10T08:28:06;16.90;99.90
36444;DHT22;24692;45.642;13.806;2023-05-10T08:30:32;17.00;99.90
36444;DHT22;24692;45.642;13.806;2023-05-10T08:32:57;16.90;99.90
36444;DHT22;24692;45.642;13.806;2023-05-10T08:35:23;16.80;99.90
36444;DHT22;24692;45.642;13.806;2023-05-10T08:37:50;17.00;99.90
36444;DHT22;24692;45.642;13.806;2023-05-10T08:40:19;17.00;99.90
36444;DHT22;24692;45.642;13.806;2023-05-10T08:45:45;16.60;99.90
36444;DHT22;24692;45.642;13.806;2023-05-10T08:48:12;16.20;99.90
36444;DHT22;24692;45.642;13.806;2023-05-10T08:50:39;16.10;99.90
36444;DHT22;24692;45.642;13.806;2023-05-10T08:53:12;16.10;99.90
36444;DHT22;24692;45.642;13.806;2023-05-10T08:55:39;16.50;99.90
36444;DHT22;24692;45.642;13.806;2023-05-10T08:58:07;16.60;99.90
36444;DHT22;24692;45.642;13.806;2023-05-10T09:00:34;16.60;99.90
36444;DHT22;24692;45.642;13.806;2023-05-10T09:03:01;16.30;99.90
36444;DHT22;24692;45.642;13.806;2023-05-10T09:05:27;16.20;99.90
36444;DHT22;24692;45.642;13.806;2023-05-10T09:07:52;16.60;99.90
36444;DHT22;24692;45.642;13.806;2023-05-10T09:10:19;16.60;99.90
36444;DHT22;24692;45.642;13.806;2023-05-10T09:12:46;16.60;99.90
36444;DHT22;24692;45.642;13.806;2023-05-10T09:15:15;16.60;99.90
36444;DHT22;24692;45.642;13.806;2023-05-10T09:17:41;16.80;99.90
36444;DHT22;24692;45.642;13.806;2023-05-10T09:20:07;17.00;99.90
36444;DHT22;24692;45.642;13.806;2023-05-10T09:22:34;16.70;99.90
36444;DHT22;24692;45.642;13.806;2023-05-10T09:25:10;17.00;99.90
36444;DHT22;24692;45.642;13.806;2023-05-10T09:27:40;17.20;99.90
36444;DHT22;24692;45.642;13.806;2023-05-10T09:30:07;17.10;99.90
36444;DHT22;24692;45.642;13.806;2023-05-10T09:32:47;17.00;99.90
36444;DHT22;24692;45.642;13.806;2023-05-10T09:35:15;17.10;99.90
36444;DHT22;24692;45.642;13.806;2023-05-10T09:37:43;17.10;99.90
36444;DHT22;24692;45.642;13.806;2023-05-10T09:40:14;16.90;99.90
36444;DHT22;24692;45.642;13.806;2023-05-10T09:42:42;16.90;99.90
36444;DHT22;24692;45.642;13.806;2023-05-10T09:45:09;17.00;99.90
36444;DHT22;24692;45.642;13.806;2023-05-10T09:47:35;16.90;99.90
36444;DHT22;24692;45.642;13.806;2023-05-10T09:50:02;16.90;99.90
36444;DHT22;24692;45.642;13.806;2023-05-10T09:52:56;16.70;99.90
36444;DHT22;24692;45.642;13.806;2023-05-10T09:55:47;16.70;99.90
36444;DHT22;24692;45.642;13.806;2023-05-10T09:58:13;16.80;99.90
36444;DHT22;24692;45.642;13.806;2023-05-10T10:00:40;16.50;99.90
36444;DHT22;24692;45.642;13.806;2023-05-10T10:03:15;16.50;99.90
36444;DHT22;24692;45.642;13.806;2023-05-10T10:05:42;16.50;99.90
36444;DHT22;24692;45.642;13.806;2023-05-10T10:08:09;16.40;99.90
36444;DHT22;24692;45.642;13.806;2023-05-10T10:10:35;16.40;99.90
36444;DHT22;24692;45.642;13.806;2023-05-10T10:13:02;16.50;99.90
36444;DHT22;24692;45.642;13.806;2023-05-10T10:15:27;16.40;99.90
36444;DHT22;24692;45.642;13.806;2023-05-10T10:17:53;16.30;99.90
36444;DHT22;24692;45.642;13.806;2023-05-10T10:20:20;16.20;99.90
36444;DHT22;24692;45.642;13.806;2023-05-10T10:22:47;16.30;99.90
36444;DHT22;24692;45.642;13.806;2023-05-10T10:25:17;16.40;99.90
36444;DHT22;24692;45.642;13.806;2023-05-10T10:27:57;16.50;99.90
36444;DHT22;24692;45.642;13.806;2023-05-10T10:30:41;16.40;99.90
36444;DHT22;24692;45.642;13.806;2023-05-10T10:35:58;16.50;99.90
36444;DHT22;24692;45.642;13.806;2023-05-10T10:38:24;16.50;99.90
36444;DHT22;24692;45.642;13.806;2023-05-10T10:41:02;16.50;99.90
36444;DHT22;24692;45.642;13.806;2023-05-10T10:43:28;16.30;99.90
36444;DHT22;24692;45.642;13.806;2023-05-10T10:46:13;16.50;99.90
36444;DHT22;24692;45.642;13.806;2023-05-10T10:48:47;16.60;99.90
36444;DHT22;24692;45.642;13.806;2023-05-10T10:51:13;16.80;99.90
36444;DHT22;24692;45.642;13.806;2023-05-10T10:53:40;16.80;99.90
36444;DHT22;24692;45.642;13.806;2023-05-10T10:56:08;16.90;99.90
36444;DHT22;24692;45.642;13.806;2023-05-10T10:58:35;17.10;99.90
36444;DHT22;24692;45.642;13.806;2023-05-10T11:01:15;17.30;99.90
36444;DHT22;24692;45.642;13.806;2023-05-10T11:03:54;17.10;99.90
36444;DHT22;24692;45.642;13.806;2023-05-10T11:06:29;17.30;99.90
36444;DHT22;24692;45.642;13.806;2023-05-10T11:08:57;17.40;99.90
36444;DHT22;24692;45.642;13.806;2023-05-10T11:11:23;17.20;99.90
36444;DHT22;24692;45.642;13.806;2023-05-10T11:13:49;17.20;99.90
36444;DHT22;24692;45.642;13.806;2023-05-10T11:16:25;17.30;99.90
36444;DHT22;24692;45.642;13.806;2023-05-10T11:19:07;17.30;99.90
36444;DHT22;24692;45.642;13.806;2023-05-10T11:21:34;17.30;99.90
36444;DHT22;24692;45.642;13.806;2023-05-10T11:24:14;17.50;99.90
36444;DHT22;24692;45.642;13.806;2023-05-10T11:26:43;17.50;99.90
36444;DHT22;24692;45.642;13.806;2023-05-10T11:29:15;17.40;99.90
36444;DHT22;24692;45.642;13.806;2023-05-10T11:31:46;17.20;99.90
36444;DHT22;24692;45.642;13.806;2023-05-10T11:34:27;17.30;99.90
36444;DHT22;24692;45.642;13.806;2023-05-10T11:36:56;17.60;99.90
36444;DHT22;24692;45.642;13.806;2023-05-10T11:39:37;17.40;99.90
36444;DHT22;24692;45.642;13.806;2023-05-10T11:42:04;17.30;99.90
36444;DHT22;24692;45.642;13.806;2023-05-10T11:44:32;17.20;99.90
36444;DHT22;24692;45.642;13.806;2023-05-10T11:47:06;17.30;99.90
36444;DHT22;24692;45.642;13.806;2023-05-10T11:49:33;17.30;99.90
36444;DHT22;24692;45.642;13.806;2023-05-10T11:52:07;17.50;99.90
36444;DHT22;24692;45.642;13.806;2023-05-10T11:54:33;17.70;99.90
36444;DHT22;24692;45.642;13.806;2023-05-10T11:57:20;17.60;99.90
36444;DHT22;24692;45.642;13.806;2023-05-10T11:59:46;17.50;99.90
36444;DHT22;24692;45.642;13.806;2023-05-10T12:02:17;17.60;99.90
36444;DHT22;24692;45.642;13.806;2023-05-10T12:04:42;17.80;99.90
36444;DHT22;24692;45.642;13.806;2023-05-10T12:07:10;17.90;99.90
36444;DHT22;24692;45.642;13.806;2023-05-10T12:09:41;17.90;99.90
36444;DHT22;24692;45.642;13.806;2023-05-10T12:12:10;17.70;99.90
36444;DHT22;24692;45.642;13.806;2023-05-10T12:14:38;17.70;99.90
36444;DHT22;24692;45.642;13.806;2023-05-10T12:17:05;17.60;99.90
36444;DHT22;24692;45.642;13.806;2023-05-10T12:19:39;17.70;99.90
36444;DHT22;24692;45.642;13.806;2023-05-10T12:22:06;17.70;99.90
36444;DHT22;24692;45.642;13.806;2023-05-10T12:24:37;17.60;99.90
36444;DHT22;24692;45.642;13.806;2023-05-10T12:27:10;17.70;99.90
36444;DHT22;24692;45.642;13.806;2023-05-10T12:29:42;17.90;99.90
36444;DHT22;24692;45.642;13.806;2023-05-10T12:32:09;17.90;99.90
36444;DHT22;24692;45.642;13.806;2023-05-10T12:34:36;17.80;99.90
36444;DHT22;24692;45.642;13.806;2023-05-10T12:37:05;17.80;99.90
36444;DHT22;24692;45.642;13.806;2023-05-10T12:39:41;17.70;99.90
36444;DHT22;24692;45.642;13.806;2023-05-10T12:42:08;17.80;99.90
36444;DHT22;24692;45.642;13.806;2023-05-10T12:44:34;17.80;99.90
36444;DHT22;24692;45.642;13.806;2023-05-10T12:47:00;17.70;99.90
36444;DHT22;24692;45.642;13.806;2023-05-10T12:49:28;17.80;99.90
36444;DHT22;24692;45.642;13.806;2023-05-10T12:51:54;17.90;99.90
36444;DHT22;24692;45.642;13.806;2023-05-10T12:54:20;17.80;99.90
36444;DHT22;24692;45.642;13.806;2023-05-10T12:56:46;17.50;99.90
36444;DHT22;24692;45.642;13.806;2023-05-10T12:59:34;17.70;99.90
36444;DHT22;24692;45.642;13.806;2023-05-10T13:02:02;17.90;99.90
36444;DHT22;24692;45.642;13.806;2023-05-10T13:04:34;17.90;99.90
36444;DHT22;24692;45.642;13.806;2023-05-10T13:07:00;18.00;99.90
36444;DHT22;24692;45.642;13.806;2023-05-10T13:09:27;17.80;99.90
36444;DHT22;24692;45.642;13.806;2023-05-10T13:11:55;17.80;99.90
36444;DHT22;24692;45.642;13.806;2023-05-10T13:14:20;17.70;99.90
36444;DHT22;24692;45.642;13.806;2023-05-10T13:16:47;17.70;99.90
36444;DHT22;24692;45.642;13.806;2023-05-10T13:19:14;17.70;99.90
36444;DHT22;24692;45.642;13.806;2023-05-10T13:21:40;17.70;99.90
36444;DHT22;24692;45.642;13.806;2023-05-10T13:24:10;17.70;99.90
36444;DHT22;24692;45.642;13.806;2023-05-10T13:26:36;17.70;99.90
36444;DHT22;24692;45.642;13.806;2023-05-10T13:29:03;17.60;99.90
36444;DHT22;24692;45.642;13.806;2023-05-10T13:31:28;17.60;99.90
36444;DHT22;24692;45.642;13.806;2023-05-10T13:33:54;17.50;99.90
36444;DHT22;24692;45.642;13.806;2023-05-10T13:36:20;17.50;99.90
36444;DHT22;24692;45.642;13.806;2023-05-10T13:38:46;17.50;99.90
36444;DHT22;24692;45.642;13.806;2023-05-10T13:41:11;17.50;99.90
36444;DHT22;24692;45.642;13.806;2023-05-10T13:43:37;17.50;99.90
36444;DHT22;24692;45.642;13.806;2023-05-10T13:46:03;17.50;99.90
36444;DHT22;24692;45.642;13.806;2023-05-10T13:48:28;17.40;99.90
36444;DHT22;24692;45.642;13.806;2023-05-10T13:50:54;17.40;99.90
36444;DHT22;24692;45.642;13.806;2023-05-10T13:53:20;17.30;99.90
36444;DHT22;24692;45.642;13.806;2023-05-10T13:55:46;17.30;99.90
36444;DHT22;24692;45.642;13.806;2023-05-10T13:58:12;17.40;99.90
36444;DHT22;24692;45.642;13.806;2023-05-10T14:00:38;17.40;99.90
36444;DHT22;24692;45.642;13.806;2023-05-10T14:03:03;17.40;99.90
36444;DHT22;24692;45.642;13.806;2023-05-10T14:05:30;17.40;99.90
36444;DHT22;24692;45.642;13.806;2023-05-10T14:07:56;17.20;99.90
36444;DHT22;24692;45.642;13.806;2023-05-10T14:10:22;17.20;99.90
36444;DHT22;24692;45.642;13.806;2023-05-10T14:12:48;17.00;99.90
36444;DHT22;24692;45.642;13.806;2023-05-10T14:15:13;17.10;99.90
36444;DHT22;24692;45.642;13.806;2023-05-10T14:17:39;17.10;99.90
36444;DHT22;24692;45.642;13.806;2023-05-10T14:20:05;16.90;99.90
36444;DHT22;24692;45.642;13.806;2023-05-10T14:22:31;17.00;99.90
36444;DHT22;24692;45.642;13.806;2023-05-10T14:24:56;17.10;99.90
36444;DHT22;24692;45.642;13.806;2023-05-10T14:27:22;17.00;99.90
36444;DHT22;24692;45.642;13.806;2023-05-10T14:29:48;16.70;99.90
36444;DHT22;24692;45.642;13.806;2023-05-10T14:32:14;17.00;99.90
36444;DHT22;24692;45.642;13.806;2023-05-10T14:34:39;16.90;99.90
36444;DHT22;24692;45.642;13.806;2023-05-10T14:37:05;17.00;99.90
36444;DHT22;24692;45.642;13.806;2023-05-10T14:39:31;16.90;99.90
36444;DHT22;24692;45.642;13.806;2023-05-10T14:41:57;16.90;99.90
36444;DHT22;24692;45.642;13.806;2023-05-10T14:44:23;17.00;99.90
36444;DHT22;24692;45.642;13.806;2023-05-10T14:46:49;16.90;99.90
36444;DHT22;24692;45.642;13.806;2023-05-10T14:49:15;16.70;99.90
36444;DHT22;24692;45.642;13.806;2023-05-10T14:51:40;16.60;99.90
36444;DHT22;24692;45.642;13.806;2023-05-10T14:54:06;16.40;99.90
36444;DHT22;24692;45.642;13.806;2023-05-10T14:56:32;16.20;99.90
36444;DHT22;24692;45.642;13.806;2023-05-10T14:58:58;16.20;99.90
36444;DHT22;24692;45.642;13.806;2023-05-10T15:01:24;16.10;99.90
36444;DHT22;24692;45.642;13.806;2023-05-10T15:03:50;16.00;99.90
36444;DHT22;24692;45.642;13.806;2023-05-10T15:06:16;15.70;99.90
36444;DHT22;24692;45.642;13.806;2023-05-10T15:08:42;15.60;99.90
36444;DHT22;24692;45.642;13.806;2023-05-10T15:11:08;15.60;99.90
36444;DHT22;24692;45.642;13.806;2023-05-10T15:13:34;15.70;99.90
36444;DHT22;24692;45.642;13.806;2023-05-10T15:15:59;15.70;99.90
36444;DHT22;24692;45.642;13.806;2023-05-10T15:18:25;15.70;99.90
36444;DHT22;24692;45.642;13.806;2023-05-10T15:20:51;15.70;99.90
36444;DHT22;24692;45.642;13.806;2023-05-10T15:23:17;15.60;99.90
36444;DHT22;24692;45.642;13.806;2023-05-10T15:25:42;15.60;99.90
36444;DHT22;24692;45.642;13.806;2023-05-10T15:28:08;15.50;99.90
36444;DHT22;24692;45.642;13.806;2023-05-10T15:30:34;15.40;99.90
36444;DHT22;24692;45.642;13.806;2023-05-10T15:32:59;15.40;99.90
36444;DHT22;24692;45.642;13.806;2023-05-10T15:35:26;15.40;99.90
36444;DHT22;24692;45.642;13.806;2023-05-10T15:37:52;15.50;99.90
36444;DHT22;24692;45.642;13.806;2023-05-10T15:40:17;15.50;99.90